sensor_id;sensor_type;location;lat;lon;timestamp;P1;durP1;ratioP1;P2;durP2;ratioP2
15679;SDS011;15488;48.114;11.532;2023-06-01T00:00:18;7.50;;;6.00;;
15679;SDS011;15488;48.114;11.532;2023-06-01T00:02:46;9.63;;;6.63;;
15679;SDS011;15488;48.114;11.532;2023-06-01T00:05:14;10.07;;;7.50;;
15679;SDS011;15488;48.114;11.532;2023-06-01T00:07:43;7.80;;;6.20;;
15679;SDS011;15488;48.114;11.532;2023-06-01T00:10:10;7.53;;;5.53;;
15679;SDS011;15488;48.114;11.532;2023-06-01T00:12:38;6.43;;;5.60;;
15679;SDS011;15488;48.114;11.532;2023-06-01T00:15:06;6.80;;;5.47;;
15679;SDS011;15488;48.114;11.532;2023-06-01T00:17:34;6.97;;;5.23;;
15679;SDS011;15488;48.114;11.532;2023-06-01T00:20:02;6.53;;;5.50;;
15679;SDS011;15488;48.114;11.532;2023-06-01T00:22:33;5.70;;;5.10;;
15679;SDS011;15488;48.114;11.532;2023-06-01T00:25:05;6.20;;;5.33;;
15679;SDS011;15488;48.114;11.532;2023-06-01T00:27:33;6.67;;;5.47;;
15679;SDS011;15488;48.114;11.532;2023-06-01T00:30:01;9.70;;;5.60;;
15679;SDS011;15488;48.114;11.532;2023-06-01T00:32:28;7.70;;;6.07;;
15679;SDS011;15488;48.114;11.532;2023-06-01T00:34:56;7.37;;;5.70;;
15679;SDS011;15488;48.114;11.532;2023-06-01T00:37:23;6.97;;;5.30;;
15679;SDS011;15488;48.114;11.532;2023-06-01T00:39:51;6.83;;;6.00;;
15679;SDS011;15488;48.114;11.532;2023-06-01T00:42:19;6.20;;;5.50;;
15679;SDS011;15488;48.114;11.532;2023-06-01T00:44:47;8.37;;;5.60;;
15679;SDS011;15488;48.114;11.532;2023-06-01T00:47:15;6.67;;;5.50;;
15679;SDS011;15488;48.114;11.532;2023-06-01T00:49:43;7.60;;;5.60;;
15679;SDS011;15488;48.114;11.532;2023-06-01T00:52:10;8.20;;;5.50;;
15679;SDS011;15488;48.114;11.532;2023-06-01T00:54:38;6.60;;;5.40;;
15679;SDS011;15488;48.114;11.532;2023-06-01T00:57:06;9.30;;;5.83;;
15679;SDS011;15488;48.114;11.532;2023-06-01T00:59:35;7.10;;;6.00;;
15679;SDS011;15488;48.114;11.532;2023-06-01T01:02:03;6.30;;;5.27;;
15679;SDS011;15488;48.114;11.532;2023-06-01T01:04:33;7.23;;;5.60;;
15679;SDS011;15488;48.114;11.532;2023-06-01T01:07:02;7.57;;;5.40;;
15679;SDS011;15488;48.114;11.532;2023-06-01T01:09:37;6.47;;;5.53;;
15679;SDS011;15488;48.114;11.532;2023-06-01T01:12:13;7.53;;;5.43;;
15679;SDS011;15488;48.114;11.532;2023-06-01T01:14:49;6.60;;;5.63;;
15679;SDS011;15488;48.114;11.532;2023-06-01T01:17:22;8.47;;;6.10;;
15679;SDS011;15488;48.114;11.532;2023-06-01T01:20:01;6.23;;;5.63;;
15679;SDS011;15488;48.114;11.532;2023-06-01T01:25:36;6.33;;;5.43;;
15679;SDS011;15488;48.114;11.532;2023-06-01T01:28:27;7.73;;;5.90;;
15679;SDS011;15488;48.114;11.532;2023-06-01T01:30:59;7.17;;;5.63;;
15679;SDS011;15488;48.114;11.532;2023-06-01T01:33:29;6.73;;;5.67;;
15679;SDS011;15488;48.114;11.532;2023-06-01T01:35:57;6.80;;;5.53;;
15679;SDS011;15488;48.114;11.532;2023-06-01T01:38:26;6.30;;;5.23;;
15679;SDS011;15488;48.114;11.532;2023-06-01T01:40:54;7.55;;;6.10;;
15679;SDS011;15488;48.114;11.532;2023-06-01T01:43:21;6.40;;;5.57;;
15679;SDS011;15488;48.114;11.532;2023-06-01T01:45:53;7.43;;;5.73;;
15679;SDS011;15488;48.114;11.532;2023-06-01T01:48:27;8.10;;;6.20;;
15679;SDS011;15488;48.114;11.532;2023-06-01T01:51:01;7.27;;;5.77;;
15679;SDS011;15488;48.114;11.532;2023-06-01T01:53:33;6.67;;;5.60;;
15679;SDS011;15488;48.114;11.532;2023-06-01T01:56:04;6.40;;;5.70;;
15679;SDS011;15488;48.114;11.532;2023-06-01T01:58:33;7.13;;;5.93;;
15679;SDS011;15488;48.114;11.532;2023-06-01T02:01:02;7.87;;;5.80;;
15679;SDS011;15488;48.114;11.532;2023-06-01T02:03:30;6.33;;;5.67;;
15679;SDS011;15488;48.114;11.532;2023-06-01T02:05:58;6.80;;;6.10;;
15679;SDS011;15488;48.114;11.532;2023-06-01T02:08:25;8.20;;;6.00;;
15679;SDS011;15488;48.114;11.532;2023-06-01T02:10:53;7.43;;;5.87;;
15679;SDS011;15488;48.114;11.532;2023-06-01T02:13:20;7.60;;;6.17;;
15679;SDS011;15488;48.114;11.532;2023-06-01T02:15:48;8.43;;;6.00;;
15679;SDS011;15488;48.114;11.532;2023-06-01T02:18:16;9.20;;;5.90;;
15679;SDS011;15488;48.114;11.532;2023-06-01T02:20:44;8.63;;;5.93;;
15679;SDS011;15488;48.114;11.532;2023-06-01T02:23:12;7.53;;;6.13;;
15679;SDS011;15488;48.114;11.532;2023-06-01T02:25:39;6.53;;;5.73;;
15679;SDS011;15488;48.114;11.532;2023-06-01T02:28:07;6.80;;;6.00;;
15679;SDS011;15488;48.114;11.532;2023-06-01T02:30:35;8.80;;;6.67;;
15679;SDS011;15488;48.114;11.532;2023-06-01T02:33:03;7.77;;;6.40;;
15679;SDS011;15488;48.114;11.532;2023-06-01T02:35:32;7.83;;;6.17;;
15679;SDS011;15488;48.114;11.532;2023-06-01T02:37:59;7.33;;;5.87;;
15679;SDS011;15488;48.114;11.532;2023-06-01T02:40:26;8.87;;;6.30;;
15679;SDS011;15488;48.114;11.532;2023-06-01T02:42:54;7.43;;;6.33;;
15679;SDS011;15488;48.114;11.532;2023-06-01T02:45:24;8.17;;;6.30;;
15679;SDS011;15488;48.114;11.532;2023-06-01T02:47:52;7.93;;;6.23;;
15679;SDS011;15488;48.114;11.532;2023-06-01T02:50:19;7.73;;;6.20;;
15679;SDS011;15488;48.114;11.532;2023-06-01T02:52:48;8.37;;;5.83;;
15679;SDS011;15488;48.114;11.532;2023-06-01T02:55:16;7.60;;;6.23;;
15679;SDS011;15488;48.114;11.532;2023-06-01T02:57:43;8.57;;;6.60;;
15679;SDS011;15488;48.114;11.532;2023-06-01T03:00:11;7.17;;;6.00;;
15679;SDS011;15488;48.114;11.532;2023-06-01T03:02:42;7.50;;;5.90;;
15679;SDS011;15488;48.114;11.532;2023-06-01T03:05:10;7.10;;;6.30;;
15679;SDS011;15488;48.114;11.532;2023-06-01T03:07:39;6.57;;;5.87;;
15679;SDS011;15488;48.114;11.532;2023-06-01T03:10:08;7.30;;;5.97;;
15679;SDS011;15488;48.114;11.532;2023-06-01T03:12:37;7.63;;;5.73;;
15679;SDS011;15488;48.114;11.532;2023-06-01T03:15:05;8.67;;;6.00;;
15679;SDS011;15488;48.114;11.532;2023-06-01T03:17:33;7.10;;;6.23;;
15679;SDS011;15488;48.114;11.532;2023-06-01T03:20:00;6.90;;;5.60;;
15679;SDS011;15488;48.114;11.532;2023-06-01T03:22:28;7.90;;;6.03;;
15679;SDS011;15488;48.114;11.532;2023-06-01T03:24:56;7.40;;;5.70;;
15679;SDS011;15488;48.114;11.532;2023-06-01T03:27:26;8.10;;;5.80;;
15679;SDS011;15488;48.114;11.532;2023-06-01T03:29:54;7.57;;;5.70;;
15679;SDS011;15488;48.114;11.532;2023-06-01T03:32:21;7.07;;;5.60;;
15679;SDS011;15488;48.114;11.532;2023-06-01T03:34:48;6.20;;;5.60;;
15679;SDS011;15488;48.114;11.532;2023-06-01T03:37:16;6.93;;;5.63;;
15679;SDS011;15488;48.114;11.532;2023-06-01T03:39:44;6.87;;;5.80;;
15679;SDS011;15488;48.114;11.532;2023-06-01T03:42:12;7.30;;;5.70;;
15679;SDS011;15488;48.114;11.532;2023-06-01T03:44:41;7.07;;;5.87;;
15679;SDS011;15488;48.114;11.532;2023-06-01T03:47:09;9.17;;;5.93;;
15679;SDS011;15488;48.114;11.532;2023-06-01T03:49:36;7.23;;;5.90;;
15679;SDS011;15488;48.114;11.532;2023-06-01T03:52:04;7.67;;;6.30;;
15679;SDS011;15488;48.114;11.532;2023-06-01T03:54:32;7.37;;;5.50;;
15679;SDS011;15488;48.114;11.532;2023-06-01T03:56:59;7.43;;;5.73;;
15679;SDS011;15488;48.114;11.532;2023-06-01T03:59:27;6.87;;;6.07;;
15679;SDS011;15488;48.114;11.532;2023-06-01T04:01:56;8.37;;;6.10;;
15679;SDS011;15488;48.114;11.532;2023-06-01T04:04:24;7.73;;;6.20;;
15679;SDS011;15488;48.114;11.532;2023-06-01T04:06:54;6.77;;;6.07;;
15679;SDS011;15488;48.114;11.532;2023-06-01T04:09:26;8.47;;;6.13;;
15679;SDS011;15488;48.114;11.532;2023-06-01T04:11:53;7.13;;;6.37;;
15679;SDS011;15488;48.114;11.532;2023-06-01T04:14:21;8.30;;;6.10;;
15679;SDS011;15488;48.114;11.532;2023-06-01T04:16:48;7.50;;;6.33;;
15679;SDS011;15488;48.114;11.532;2023-06-01T04:19:17;8.60;;;6.33;;
15679;SDS011;15488;48.114;11.532;2023-06-01T04:21:45;8.17;;;6.47;;
15679;SDS011;15488;48.114;11.532;2023-06-01T04:24:12;8.53;;;6.17;;
15679;SDS011;15488;48.114;11.532;2023-06-01T04:26:40;7.10;;;6.37;;
15679;SDS011;15488;48.114;11.532;2023-06-01T04:29:07;8.97;;;6.90;;
15679;SDS011;15488;48.114;11.532;2023-06-01T04:31:37;10.13;;;7.07;;
15679;SDS011;15488;48.114;11.532;2023-06-01T04:34:04;7.43;;;6.70;;
15679;SDS011;15488;48.114;11.532;2023-06-01T04:36:33;7.27;;;6.30;;
15679;SDS011;15488;48.114;11.532;2023-06-01T04:39:04;9.17;;;6.67;;
15679;SDS011;15488;48.114;11.532;2023-06-01T04:41:32;8.13;;;7.03;;
15679;SDS011;15488;48.114;11.532;2023-06-01T04:44:01;8.83;;;6.90;;
15679;SDS011;15488;48.114;11.532;2023-06-01T04:46:31;8.93;;;6.70;;
15679;SDS011;15488;48.114;11.532;2023-06-01T04:49:00;8.93;;;6.87;;
15679;SDS011;15488;48.114;11.532;2023-06-01T04:51:28;7.93;;;6.83;;
15679;SDS011;15488;48.114;11.532;2023-06-01T04:53:57;8.43;;;6.67;;
15679;SDS011;15488;48.114;11.532;2023-06-01T04:56:25;9.10;;;6.50;;
15679;SDS011;15488;48.114;11.532;2023-06-01T04:58:53;9.47;;;6.73;;
15679;SDS011;15488;48.114;11.532;2023-06-01T05:01:21;7.73;;;6.50;;
15679;SDS011;15488;48.114;11.532;2023-06-01T05:03:50;8.93;;;6.20;;
15679;SDS011;15488;48.114;11.532;2023-06-01T05:06:20;8.30;;;6.77;;
15679;SDS011;15488;48.114;11.532;2023-06-01T05:08:48;9.77;;;6.50;;
15679;SDS011;15488;48.114;11.532;2023-06-01T05:11:17;10.50;;;6.63;;
15679;SDS011;15488;48.114;11.532;2023-06-01T05:13:44;7.40;;;6.20;;
15679;SDS011;15488;48.114;11.532;2023-06-01T05:16:12;8.67;;;5.97;;
15679;SDS011;15488;48.114;11.532;2023-06-01T05:18:39;9.03;;;6.70;;
15679;SDS011;15488;48.114;11.532;2023-06-01T05:21:06;7.97;;;6.07;;
15679;SDS011;15488;48.114;11.532;2023-06-01T05:23:34;9.33;;;6.43;;
15679;SDS011;15488;48.114;11.532;2023-06-01T05:26:01;7.93;;;6.23;;
15679;SDS011;15488;48.114;11.532;2023-06-01T05:28:31;9.73;;;6.50;;
15679;SDS011;15488;48.114;11.532;2023-06-01T05:30:59;9.97;;;6.40;;
15679;SDS011;15488;48.114;11.532;2023-06-01T05:33:26;9.33;;;6.43;;
15679;SDS011;15488;48.114;11.532;2023-06-01T05:35:54;7.27;;;6.03;;
15679;SDS011;15488;48.114;11.532;2023-06-01T05:38:21;9.10;;;6.17;;
15679;SDS011;15488;48.114;11.532;2023-06-01T05:40:49;9.60;;;6.77;;
15679;SDS011;15488;48.114;11.532;2023-06-01T05:43:16;9.27;;;6.50;;
15679;SDS011;15488;48.114;11.532;2023-06-01T05:45:45;8.87;;;6.17;;
15679;SDS011;15488;48.114;11.532;2023-06-01T05:48:13;9.17;;;6.67;;
15679;SDS011;15488;48.114;11.532;2023-06-01T05:50:41;8.40;;;6.63;;
15679;SDS011;15488;48.114;11.532;2023-06-01T05:53:08;9.50;;;7.43;;
15679;SDS011;15488;48.114;11.532;2023-06-01T05:55:36;8.83;;;6.97;;
15679;SDS011;15488;48.114;11.532;2023-06-01T05:58:04;8.67;;;6.60;;
15679;SDS011;15488;48.114;11.532;2023-06-01T06:00:32;8.17;;;6.23;;
15679;SDS011;15488;48.114;11.532;2023-06-01T06:03:02;10.50;;;6.63;;
15679;SDS011;15488;48.114;11.532;2023-06-01T06:05:29;9.83;;;6.60;;
15679;SDS011;15488;48.114;11.532;2023-06-01T06:07:57;10.23;;;6.93;;
15679;SDS011;15488;48.114;11.532;2023-06-01T06:10:24;11.30;;;8.40;;
15679;SDS011;15488;48.114;11.532;2023-06-01T06:12:52;8.90;;;7.07;;
15679;SDS011;15488;48.114;11.532;2023-06-01T06:15:20;8.77;;;7.00;;
15679;SDS011;15488;48.114;11.532;2023-06-01T06:17:48;9.33;;;6.47;;
15679;SDS011;15488;48.114;11.532;2023-06-01T06:20:16;8.13;;;6.20;;
15679;SDS011;15488;48.114;11.532;2023-06-01T06:22:48;10.37;;;6.33;;
15679;SDS011;15488;48.114;11.532;2023-06-01T06:25:16;6.63;;;6.03;;
15679;SDS011;15488;48.114;11.532;2023-06-01T06:27:44;8.87;;;6.50;;
15679;SDS011;15488;48.114;11.532;2023-06-01T06:30:12;7.57;;;6.37;;
15679;SDS011;15488;48.114;11.532;2023-06-01T06:32:40;9.07;;;6.37;;
15679;SDS011;15488;48.114;11.532;2023-06-01T06:35:08;8.50;;;6.60;;
15679;SDS011;15488;48.114;11.532;2023-06-01T06:37:39;10.10;;;6.80;;
15679;SDS011;15488;48.114;11.532;2023-06-01T06:40:09;10.57;;;7.40;;
15679;SDS011;15488;48.114;11.532;2023-06-01T06:42:37;7.80;;;6.07;;
15679;SDS011;15488;48.114;11.532;2023-06-01T06:45:05;13.67;;;6.90;;
15679;SDS011;15488;48.114;11.532;2023-06-01T06:47:33;11.33;;;6.47;;
15679;SDS011;15488;48.114;11.532;2023-06-01T06:50:00;9.03;;;6.37;;
15679;SDS011;15488;48.114;11.532;2023-06-01T06:52:28;9.00;;;6.60;;
15679;SDS011;15488;48.114;11.532;2023-06-01T06:54:57;10.00;;;6.83;;
15679;SDS011;15488;48.114;11.532;2023-06-01T06:57:24;8.30;;;7.30;;
15679;SDS011;15488;48.114;11.532;2023-06-01T06:59:51;8.60;;;6.93;;
15679;SDS011;15488;48.114;11.532;2023-06-01T07:02:19;11.63;;;7.60;;
15679;SDS011;15488;48.114;11.532;2023-06-01T07:04:47;8.80;;;7.03;;
15679;SDS011;15488;48.114;11.532;2023-06-01T07:07:15;8.40;;;7.00;;
15679;SDS011;15488;48.114;11.532;2023-06-01T07:09:42;10.33;;;7.37;;
15679;SDS011;15488;48.114;11.532;2023-06-01T07:12:11;10.03;;;7.07;;
15679;SDS011;15488;48.114;11.532;2023-06-01T07:14:39;11.03;;;7.20;;
15679;SDS011;15488;48.114;11.532;2023-06-01T07:17:08;8.73;;;7.23;;
15679;SDS011;15488;48.114;11.532;2023-06-01T07:19:36;7.37;;;6.53;;
15679;SDS011;15488;48.114;11.532;2023-06-01T07:22:03;10.97;;;6.30;;
15679;SDS011;15488;48.114;11.532;2023-06-01T07:24:31;10.40;;;6.63;;
15679;SDS011;15488;48.114;11.532;2023-06-01T07:26:59;8.40;;;6.10;;
15679;SDS011;15488;48.114;11.532;2023-06-01T07:29:28;7.23;;;6.33;;
15679;SDS011;15488;48.114;11.532;2023-06-01T07:31:55;12.50;;;7.23;;
15679;SDS011;15488;48.114;11.532;2023-06-01T07:34:23;9.97;;;6.77;;
15679;SDS011;15488;48.114;11.532;2023-06-01T07:36:51;7.87;;;6.80;;
15679;SDS011;15488;48.114;11.532;2023-06-01T07:39:18;8.07;;;7.00;;
15679;SDS011;15488;48.114;11.532;2023-06-01T07:41:46;12.97;;;8.80;;
15679;SDS011;15488;48.114;11.532;2023-06-01T07:44:15;14.63;;;7.53;;
15679;SDS011;15488;48.114;11.532;2023-06-01T07:46:44;10.90;;;7.10;;
15679;SDS011;15488;48.114;11.532;2023-06-01T07:49:12;10.30;;;7.33;;
15679;SDS011;15488;48.114;11.532;2023-06-01T07:51:40;13.33;;;9.03;;
15679;SDS011;15488;48.114;11.532;2023-06-01T07:54:08;10.77;;;8.30;;
15679;SDS011;15488;48.114;11.532;2023-06-01T07:56:36;10.77;;;8.50;;
15679;SDS011;15488;48.114;11.532;2023-06-01T07:59:04;7.63;;;6.87;;
15679;SDS011;15488;48.114;11.532;2023-06-01T08:01:32;9.60;;;7.00;;
15679;SDS011;15488;48.114;11.532;2023-06-01T08:04:01;12.17;;;8.33;;
15679;SDS011;15488;48.114;11.532;2023-06-01T08:06:29;13.23;;;7.83;;
15679;SDS011;15488;48.114;11.532;2023-06-01T08:09:01;8.43;;;7.23;;
15679;SDS011;15488;48.114;11.532;2023-06-01T08:11:28;9.17;;;6.87;;
15679;SDS011;15488;48.114;11.532;2023-06-01T08:13:56;11.77;;;7.80;;
15679;SDS011;15488;48.114;11.532;2023-06-01T08:16:25;10.53;;;7.20;;
15679;SDS011;15488;48.114;11.532;2023-06-01T08:18:52;8.03;;;6.40;;
15679;SDS011;15488;48.114;11.532;2023-06-01T08:21:23;11.10;;;7.27;;
15679;SDS011;15488;48.114;11.532;2023-06-01T08:23:52;10.03;;;6.80;;
15679;SDS011;15488;48.114;11.532;2023-06-01T08:26:21;11.47;;;6.00;;
15679;SDS011;15488;48.114;11.532;2023-06-01T08:28:48;7.00;;;5.97;;
15679;SDS011;15488;48.114;11.532;2023-06-01T08:31:18;10.63;;;5.97;;
15679;SDS011;15488;48.114;11.532;2023-06-01T08:33:45;7.53;;;6.40;;
15679;SDS011;15488;48.114;11.532;2023-06-01T08:36:13;8.67;;;6.90;;
15679;SDS011;15488;48.114;11.532;2023-06-01T08:38:42;9.53;;;6.80;;
15679;SDS011;15488;48.114;11.532;2023-06-01T08:41:14;10.77;;;7.30;;
15679;SDS011;15488;48.114;11.532;2023-06-01T08:43:48;8.87;;;7.70;;
15679;SDS011;15488;48.114;11.532;2023-06-01T08:46:21;8.83;;;7.40;;
15679;SDS011;15488;48.114;11.532;2023-06-01T08:48:49;7.20;;;6.33;;
15679;SDS011;15488;48.114;11.532;2023-06-01T08:51:20;7.83;;;6.10;;
15679;SDS011;15488;48.114;11.532;2023-06-01T08:53:50;7.13;;;5.90;;
15679;SDS011;15488;48.114;11.532;2023-06-01T08:56:20;7.23;;;5.70;;
15679;SDS011;15488;48.114;11.532;2023-06-01T08:58:47;9.20;;;6.50;;
15679;SDS011;15488;48.114;11.532;2023-06-01T09:01:17;13.03;;;6.37;;
15679;SDS011;15488;48.114;11.532;2023-06-01T09:03:46;11.87;;;6.33;;
15679;SDS011;15488;48.114;11.532;2023-06-01T09:06:15;9.80;;;6.57;;
15679;SDS011;15488;48.114;11.532;2023-06-01T09:08:44;8.53;;;6.73;;
15679;SDS011;15488;48.114;11.532;2023-06-01T09:11:13;9.13;;;7.40;;
15679;SDS011;15488;48.114;11.532;2023-06-01T09:13:40;12.13;;;7.93;;
15679;SDS011;15488;48.114;11.532;2023-06-01T09:16:08;9.80;;;6.83;;
15679;SDS011;15488;48.114;11.532;2023-06-01T09:18:35;7.47;;;6.20;;
15679;SDS011;15488;48.114;11.532;2023-06-01T09:21:10;6.43;;;5.53;;
15679;SDS011;15488;48.114;11.532;2023-06-01T09:23:39;8.77;;;5.83;;
15679;SDS011;15488;48.114;11.532;2023-06-01T09:26:08;6.67;;;5.80;;
15679;SDS011;15488;48.114;11.532;2023-06-01T09:28:53;8.03;;;5.63;;
15679;SDS011;15488;48.114;11.532;2023-06-01T09:31:37;6.67;;;5.87;;
15679;SDS011;15488;48.114;11.532;2023-06-01T09:34:06;8.10;;;6.23;;
15679;SDS011;15488;48.114;11.532;2023-06-01T09:36:34;6.70;;;6.00;;
15679;SDS011;15488;48.114;11.532;2023-06-01T09:39:02;9.40;;;5.50;;
15679;SDS011;15488;48.114;11.532;2023-06-01T09:41:46;7.90;;;5.50;;
15679;SDS011;15488;48.114;11.532;2023-06-01T09:44:23;9.70;;;6.10;;
15679;SDS011;15488;48.114;11.532;2023-06-01T09:46:52;8.40;;;6.13;;
15679;SDS011;15488;48.114;11.532;2023-06-01T09:49:21;12.30;;;6.40;;
15679;SDS011;15488;48.114;11.532;2023-06-01T09:51:51;10.90;;;6.47;;
15679;SDS011;15488;48.114;11.532;2023-06-01T09:54:24;7.10;;;6.10;;
15679;SDS011;15488;48.114;11.532;2023-06-01T09:56:52;9.63;;;6.33;;
15679;SDS011;15488;48.114;11.532;2023-06-01T09:59:20;7.53;;;6.17;;
15679;SDS011;15488;48.114;11.532;2023-06-01T10:01:51;15.23;;;11.67;;
15679;SDS011;15488;48.114;11.532;2023-06-01T10:04:20;9.07;;;7.87;;
15679;SDS011;15488;48.114;11.532;2023-06-01T10:06:49;7.37;;;6.17;;
15679;SDS011;15488;48.114;11.532;2023-06-01T10:09:19;7.93;;;6.03;;
15679;SDS011;15488;48.114;11.532;2023-06-01T10:11:48;6.50;;;5.80;;
15679;SDS011;15488;48.114;11.532;2023-06-01T10:14:18;7.40;;;5.93;;
15679;SDS011;15488;48.114;11.532;2023-06-01T10:16:48;6.97;;;6.20;;
15679;SDS011;15488;48.114;11.532;2023-06-01T10:19:17;6.95;;;6.25;;
15679;SDS011;15488;48.114;11.532;2023-06-01T10:21:46;8.50;;;6.30;;
15679;SDS011;15488;48.114;11.532;2023-06-01T10:24:16;7.15;;;6.07;;
15679;SDS011;15488;48.114;11.532;2023-06-01T10:26:47;7.65;;;5.93;;
15679;SDS011;15488;48.114;11.532;2023-06-01T10:29:22;6.75;;;5.75;;
15679;SDS011;15488;48.114;11.532;2023-06-01T10:31:52;8.13;;;6.10;;
15679;SDS011;15488;48.114;11.532;2023-06-01T10:37:10;6.40;;;5.70;;
15679;SDS011;15488;48.114;11.532;2023-06-01T10:39:42;8.73;;;7.07;;
15679;SDS011;15488;48.114;11.532;2023-06-01T10:45:27;8.38;;;5.50;;
15679;SDS011;15488;48.114;11.532;2023-06-01T10:48:06;6.05;;;5.40;;
15679;SDS011;15488;48.114;11.532;2023-06-01T10:50:36;5.80;;;5.28;;
15679;SDS011;15488;48.114;11.532;2023-06-01T10:53:24;6.15;;;5.28;;
15679;SDS011;15488;48.114;11.532;2023-06-01T10:58:47;6.68;;;5.40;;
15679;SDS011;15488;48.114;11.532;2023-06-01T11:01:36;9.20;;;5.60;;
15679;SDS011;15488;48.114;11.532;2023-06-01T11:04:06;5.70;;;5.10;;
15679;SDS011;15488;48.114;11.532;2023-06-01T11:06:34;6.43;;;5.68;;
15679;SDS011;15488;48.114;11.532;2023-06-01T11:09:03;6.03;;;5.20;;
15679;SDS011;15488;48.114;11.532;2023-06-01T11:14:25;6.03;;;5.15;;
15679;SDS011;15488;48.114;11.532;2023-06-01T11:16:56;6.00;;;5.15;;
15679;SDS011;15488;48.114;11.532;2023-06-01T11:19:56;6.70;;;5.95;;
15679;SDS011;15488;48.114;11.532;2023-06-01T11:22:26;7.20;;;5.57;;
15679;SDS011;15488;48.114;11.532;2023-06-01T11:25:00;6.72;;;5.70;;
15679;SDS011;15488;48.114;11.532;2023-06-01T11:27:31;6.15;;;5.25;;
15679;SDS011;15488;48.114;11.532;2023-06-01T11:29:58;7.47;;;5.30;;
15679;SDS011;15488;48.114;11.532;2023-06-01T11:32:27;6.32;;;5.75;;
15679;SDS011;15488;48.114;11.532;2023-06-01T11:34:56;6.43;;;5.45;;
15679;SDS011;15488;48.114;11.532;2023-06-01T11:37:24;6.13;;;5.53;;
15679;SDS011;15488;48.114;11.532;2023-06-01T11:39:53;6.25;;;5.00;;
15679;SDS011;15488;48.114;11.532;2023-06-01T11:42:34;7.18;;;5.38;;
15679;SDS011;15488;48.114;11.532;2023-06-01T11:45:02;5.45;;;4.95;;
15679;SDS011;15488;48.114;11.532;2023-06-01T11:47:31;5.90;;;5.28;;
15679;SDS011;15488;48.114;11.532;2023-06-01T11:50:00;6.07;;;5.53;;
15679;SDS011;15488;48.114;11.532;2023-06-01T11:52:28;5.72;;;5.18;;
15679;SDS011;15488;48.114;11.532;2023-06-01T11:55:01;5.93;;;5.40;;
15679;SDS011;15488;48.114;11.532;2023-06-01T11:57:29;6.40;;;5.38;;
15679;SDS011;15488;48.114;11.532;2023-06-01T11:59:56;6.13;;;5.38;;
15679;SDS011;15488;48.114;11.532;2023-06-01T12:02:25;7.75;;;5.20;;
15679;SDS011;15488;48.114;11.532;2023-06-01T12:04:56;5.82;;;5.32;;
15679;SDS011;15488;48.114;11.532;2023-06-01T12:07:27;5.47;;;4.97;;
15679;SDS011;15488;48.114;11.532;2023-06-01T12:09:54;6.38;;;5.32;;
15679;SDS011;15488;48.114;11.532;2023-06-01T12:12:23;6.28;;;5.45;;
15679;SDS011;15488;48.114;11.532;2023-06-01T12:14:53;6.78;;;5.50;;
15679;SDS011;15488;48.114;11.532;2023-06-01T12:17:21;6.63;;;5.53;;
15679;SDS011;15488;48.114;11.532;2023-06-01T12:19:49;6.05;;;5.25;;
15679;SDS011;15488;48.114;11.532;2023-06-01T12:22:19;6.65;;;5.68;;
15679;SDS011;15488;48.114;11.532;2023-06-01T12:24:46;6.70;;;5.95;;
15679;SDS011;15488;48.114;11.532;2023-06-01T12:27:14;7.03;;;5.85;;
15679;SDS011;15488;48.114;11.532;2023-06-01T12:29:44;6.15;;;5.53;;
15679;SDS011;15488;48.114;11.532;2023-06-01T12:32:15;5.60;;;5.10;;
15679;SDS011;15488;48.114;11.532;2023-06-01T12:34:43;5.82;;;5.32;;
15679;SDS011;15488;48.114;11.532;2023-06-01T12:37:30;7.25;;;5.40;;
15679;SDS011;15488;48.114;11.532;2023-06-01T12:39:57;5.97;;;5.38;;
15679;SDS011;15488;48.114;11.532;2023-06-01T12:42:35;5.65;;;5.13;;
15679;SDS011;15488;48.114;11.532;2023-06-01T12:45:04;7.38;;;5.50;;
15679;SDS011;15488;48.114;11.532;2023-06-01T12:47:35;7.13;;;5.82;;
15679;SDS011;15488;48.114;11.532;2023-06-01T12:50:04;5.90;;;5.28;;
15679;SDS011;15488;48.114;11.532;2023-06-01T12:52:35;5.93;;;5.43;;
15679;SDS011;15488;48.114;11.532;2023-06-01T12:55:02;8.07;;;6.05;;
15679;SDS011;15488;48.114;11.532;2023-06-01T12:57:31;5.78;;;5.28;;
15679;SDS011;15488;48.114;11.532;2023-06-01T12:59:58;6.68;;;5.35;;
15679;SDS011;15488;48.114;11.532;2023-06-01T13:02:29;6.28;;;5.60;;
15679;SDS011;15488;48.114;11.532;2023-06-01T13:04:57;9.07;;;6.13;;
15679;SDS011;15488;48.114;11.532;2023-06-01T13:07:24;6.03;;;5.43;;
15679;SDS011;15488;48.114;11.532;2023-06-01T13:09:53;6.55;;;5.30;;
15679;SDS011;15488;48.114;11.532;2023-06-01T13:12:22;6.18;;;5.57;;
15679;SDS011;15488;48.114;11.532;2023-06-01T13:14:50;6.15;;;5.55;;
15679;SDS011;15488;48.114;11.532;2023-06-01T13:17:17;6.40;;;5.38;;
15679;SDS011;15488;48.114;11.532;2023-06-01T13:19:45;5.90;;;5.30;;
15679;SDS011;15488;48.114;11.532;2023-06-01T13:22:13;5.68;;;5.00;;
15679;SDS011;15488;48.114;11.532;2023-06-01T13:24:41;6.03;;;5.50;;
15679;SDS011;15488;48.114;11.532;2023-06-01T13:27:09;6.13;;;5.05;;
15679;SDS011;15488;48.114;11.532;2023-06-01T13:29:37;6.30;;;5.10;;
15679;SDS011;15488;48.114;11.532;2023-06-01T13:32:05;5.85;;;5.25;;
15679;SDS011;15488;48.114;11.532;2023-06-01T13:34:33;5.88;;;5.28;;
15679;SDS011;15488;48.114;11.532;2023-06-01T13:37:01;5.20;;;4.72;;
15679;SDS011;15488;48.114;11.532;2023-06-01T13:39:29;6.00;;;5.40;;
15679;SDS011;15488;48.114;11.532;2023-06-01T13:41:56;6.25;;;5.65;;
15679;SDS011;15488;48.114;11.532;2023-06-01T13:44:27;5.50;;;5.00;;
15679;SDS011;15488;48.114;11.532;2023-06-01T13:46:55;6.50;;;5.90;;
15679;SDS011;15488;48.114;11.532;2023-06-01T13:49:23;6.05;;;5.32;;
15679;SDS011;15488;48.114;11.532;2023-06-01T13:51:50;7.82;;;5.60;;
15679;SDS011;15488;48.114;11.532;2023-06-01T13:54:18;5.47;;;5.03;;
15679;SDS011;15488;48.114;11.532;2023-06-01T13:56:45;8.02;;;5.28;;
15679;SDS011;15488;48.114;11.532;2023-06-01T13:59:13;6.22;;;5.65;;
15679;SDS011;15488;48.114;11.532;2023-06-01T14:01:42;5.63;;;5.07;;
15679;SDS011;15488;48.114;11.532;2023-06-01T14:04:09;5.75;;;4.88;;
15679;SDS011;15488;48.114;11.532;2023-06-01T14:06:37;5.15;;;4.65;;
15679;SDS011;15488;48.114;11.532;2023-06-01T14:09:04;6.07;;;5.53;;
15679;SDS011;15488;48.114;11.532;2023-06-01T14:11:32;5.50;;;5.00;;
15679;SDS011;15488;48.114;11.532;2023-06-01T14:13:59;6.03;;;5.53;;
15679;SDS011;15488;48.114;11.532;2023-06-01T14:16:27;5.68;;;5.07;;
15679;SDS011;15488;48.114;11.532;2023-06-01T14:18:56;6.10;;;5.60;;
15679;SDS011;15488;48.114;11.532;2023-06-01T14:21:23;5.63;;;5.03;;
15679;SDS011;15488;48.114;11.532;2023-06-01T14:23:51;6.15;;;5.50;;
15679;SDS011;15488;48.114;11.532;2023-06-01T14:26:18;7.40;;;5.47;;
15679;SDS011;15488;48.114;11.532;2023-06-01T14:28:46;6.25;;;5.63;;
15679;SDS011;15488;48.114;11.532;2023-06-01T14:31:13;10.30;;;5.28;;
15679;SDS011;15488;48.114;11.532;2023-06-01T14:33:41;8.60;;;5.15;;
15679;SDS011;15488;48.114;11.532;2023-06-01T14:36:11;7.05;;;6.28;;
15679;SDS011;15488;48.114;11.532;2023-06-01T14:38:39;8.55;;;7.18;;
15679;SDS011;15488;48.114;11.532;2023-06-01T14:41:07;8.07;;;7.15;;
15679;SDS011;15488;48.114;11.532;2023-06-01T14:43:34;7.25;;;6.55;;
15679;SDS011;15488;48.114;11.532;2023-06-01T14:46:03;9.32;;;6.72;;
15679;SDS011;15488;48.114;11.532;2023-06-01T14:48:31;9.25;;;6.68;;
15679;SDS011;15488;48.114;11.532;2023-06-01T14:50:58;6.28;;;5.45;;
15679;SDS011;15488;48.114;11.532;2023-06-01T14:53:27;5.95;;;5.35;;
15679;SDS011;15488;48.114;11.532;2023-06-01T14:55:55;5.45;;;4.95;;
15679;SDS011;15488;48.114;11.532;2023-06-01T14:58:22;5.07;;;4.68;;